sensor_id;sensor_type;location;lat;lon;timestamp;P1;durP1;ratioP1;P2;durP2;ratioP2
72649;SDS011;61467;50.674;4.618;2023-04-06T00:00:08;19.13;;;8.23;;
72649;SDS011;61467;50.674;4.618;2023-04-06T00:02:36;17.23;;;8.07;;
72649;SDS011;61467;50.674;4.618;2023-04-06T00:05:03;18.17;;;8.90;;
72649;SDS011;61467;50.674;4.618;2023-04-06T00:07:30;17.15;;;7.97;;
72649;SDS011;61467;50.674;4.618;2023-04-06T00:09:58;17.58;;;8.38;;
72649;SDS011;61467;50.674;4.618;2023-04-06T00:12:26;17.00;;;7.27;;
72649;SDS011;61467;50.674;4.618;2023-04-06T00:14:53;18.02;;;8.48;;
72649;SDS011;61467;50.674;4.618;2023-04-06T00:17:20;19.73;;;8.70;;
72649;SDS011;61467;50.674;4.618;2023-04-06T00:19:47;18.10;;;8.27;;
72649;SDS011;61467;50.674;4.618;2023-04-06T00:22:13;18.15;;;8.93;;
72649;SDS011;61467;50.674;4.618;2023-04-06T00:24:40;17.17;;;7.87;;
72649;SDS011;61467;50.674;4.618;2023-04-06T00:27:07;18.35;;;7.97;;
72649;SDS011;61467;50.674;4.618;2023-04-06T00:29:35;17.63;;;8.05;;
72649;SDS011;61467;50.674;4.618;2023-04-06T00:32:03;18.52;;;7.82;;
72649;SDS011;61467;50.674;4.618;2023-04-06T00:34:31;21.60;;;8.32;;
72649;SDS011;61467;50.674;4.618;2023-04-06T00:36:58;17.73;;;8.17;;
72649;SDS011;61467;50.674;4.618;2023-04-06T00:39:26;17.80;;;8.18;;
72649;SDS011;61467;50.674;4.618;2023-04-06T00:41:53;17.38;;;8.13;;
72649;SDS011;61467;50.674;4.618;2023-04-06T00:44:21;19.05;;;7.93;;
72649;SDS011;61467;50.674;4.618;2023-04-06T00:46:50;16.55;;;8.10;;
72649;SDS011;61467;50.674;4.618;2023-04-06T00:49:17;19.00;;;8.40;;
72649;SDS011;61467;50.674;4.618;2023-04-06T00:51:43;15.63;;;7.93;;
72649;SDS011;61467;50.674;4.618;2023-04-06T00:54:10;17.15;;;8.57;;
72649;SDS011;61467;50.674;4.618;2023-04-06T00:56:37;17.15;;;8.75;;
72649;SDS011;61467;50.674;4.618;2023-04-06T00:59:04;18.05;;;8.63;;
72649;SDS011;61467;50.674;4.618;2023-04-06T01:01:31;16.60;;;7.67;;
72649;SDS011;61467;50.674;4.618;2023-04-06T01:03:59;17.17;;;8.13;;
72649;SDS011;61467;50.674;4.618;2023-04-06T01:06:27;21.10;;;8.60;;
72649;SDS011;61467;50.674;4.618;2023-04-06T01:08:54;15.13;;;7.55;;
72649;SDS011;61467;50.674;4.618;2023-04-06T01:11:21;17.17;;;8.52;;
72649;SDS011;61467;50.674;4.618;2023-04-06T01:13:48;18.77;;;8.97;;
72649;SDS011;61467;50.674;4.618;2023-04-06T01:16:15;16.52;;;7.82;;
72649;SDS011;61467;50.674;4.618;2023-04-06T01:18:42;17.52;;;7.97;;
72649;SDS011;61467;50.674;4.618;2023-04-06T01:21:10;17.42;;;7.40;;
72649;SDS011;61467;50.674;4.618;2023-04-06T01:23:42;16.10;;;7.93;;
72649;SDS011;61467;50.674;4.618;2023-04-06T01:26:10;16.77;;;7.53;;
72649;SDS011;61467;50.674;4.618;2023-04-06T01:28:37;16.73;;;8.05;;
72649;SDS011;61467;50.674;4.618;2023-04-06T01:31:04;16.90;;;8.27;;
72649;SDS011;61467;50.674;4.618;2023-04-06T01:33:34;15.43;;;8.00;;
72649;SDS011;61467;50.674;4.618;2023-04-06T01:36:01;16.58;;;8.52;;
72649;SDS011;61467;50.674;4.618;2023-04-06T01:38:28;16.87;;;7.80;;
72649;SDS011;61467;50.674;4.618;2023-04-06T01:40:58;16.58;;;8.52;;
72649;SDS011;61467;50.674;4.618;2023-04-06T01:43:24;18.42;;;8.00;;
72649;SDS011;61467;50.674;4.618;2023-04-06T01:45:51;18.35;;;7.68;;
72649;SDS011;61467;50.674;4.618;2023-04-06T01:48:18;16.15;;;7.57;;
72649;SDS011;61467;50.674;4.618;2023-04-06T01:50:45;17.83;;;8.40;;
72649;SDS011;61467;50.674;4.618;2023-04-06T01:53:12;17.73;;;8.10;;
72649;SDS011;61467;50.674;4.618;2023-04-06T01:55:39;16.77;;;7.55;;
72649;SDS011;61467;50.674;4.618;2023-04-06T01:58:07;16.33;;;7.65;;
72649;SDS011;61467;50.674;4.618;2023-04-06T02:00:34;16.23;;;7.53;;
72649;SDS011;61467;50.674;4.618;2023-04-06T02:03:01;16.80;;;8.40;;
72649;SDS011;61467;50.674;4.618;2023-04-06T02:05:29;16.88;;;7.95;;
72649;SDS011;61467;50.674;4.618;2023-04-06T02:07:58;15.10;;;7.65;;
72649;SDS011;61467;50.674;4.618;2023-04-06T02:10:25;16.58;;;8.05;;
72649;SDS011;61467;50.674;4.618;2023-04-06T02:12:52;17.75;;;8.00;;
72649;SDS011;61467;50.674;4.618;2023-04-06T02:15:20;16.97;;;7.87;;
72649;SDS011;61467;50.674;4.618;2023-04-06T02:17:46;17.00;;;7.97;;
72649;SDS011;61467;50.674;4.618;2023-04-06T02:20:13;17.55;;;8.40;;
72649;SDS011;61467;50.674;4.618;2023-04-06T02:22:40;16.73;;;7.72;;
72649;SDS011;61467;50.674;4.618;2023-04-06T02:25:07;16.60;;;7.88;;
72649;SDS011;61467;50.674;4.618;2023-04-06T02:27:34;17.33;;;7.97;;
72649;SDS011;61467;50.674;4.618;2023-04-06T02:30:01;18.67;;;8.13;;
72649;SDS011;61467;50.674;4.618;2023-04-06T02:32:30;17.00;;;8.18;;
72649;SDS011;61467;50.674;4.618;2023-04-06T02:34:56;17.65;;;8.10;;
72649;SDS011;61467;50.674;4.618;2023-04-06T02:37:23;16.33;;;7.45;;
72649;SDS011;61467;50.674;4.618;2023-04-06T02:39:50;15.93;;;7.53;;
72649;SDS011;61467;50.674;4.618;2023-04-06T02:42:18;18.17;;;7.75;;
72649;SDS011;61467;50.674;4.618;2023-04-06T02:44:45;17.60;;;7.95;;
72649;SDS011;61467;50.674;4.618;2023-04-06T02:47:12;16.45;;;8.25;;
72649;SDS011;61467;50.674;4.618;2023-04-06T02:49:40;15.35;;;7.88;;
72649;SDS011;61467;50.674;4.618;2023-04-06T02:52:07;18.03;;;8.03;;
72649;SDS011;61467;50.674;4.618;2023-04-06T02:54:34;16.05;;;7.80;;
72649;SDS011;61467;50.674;4.618;2023-04-06T02:57:01;17.35;;;8.20;;
72649;SDS011;61467;50.674;4.618;2023-04-06T02:59:27;17.23;;;8.68;;
72649;SDS011;61467;50.674;4.618;2023-04-06T03:01:54;17.48;;;8.07;;
72649;SDS011;61467;50.674;4.618;2023-04-06T03:04:21;17.67;;;8.00;;
72649;SDS011;61467;50.674;4.618;2023-04-06T03:06:51;17.98;;;8.23;;
72649;SDS011;61467;50.674;4.618;2023-04-06T03:09:19;20.60;;;8.75;;
72649;SDS011;61467;50.674;4.618;2023-04-06T03:11:46;17.08;;;8.32;;
72649;SDS011;61467;50.674;4.618;2023-04-06T03:14:13;18.95;;;7.65;;
72649;SDS011;61467;50.674;4.618;2023-04-06T03:16:43;15.67;;;7.67;;
72649;SDS011;61467;50.674;4.618;2023-04-06T03:19:10;18.05;;;7.90;;
72649;SDS011;61467;50.674;4.618;2023-04-06T03:21:37;15.27;;;7.25;;
72649;SDS011;61467;50.674;4.618;2023-04-06T03:24:05;15.63;;;7.57;;
72649;SDS011;61467;50.674;4.618;2023-04-06T03:26:33;18.15;;;7.93;;
72649;SDS011;61467;50.674;4.618;2023-04-06T03:29:00;17.27;;;7.70;;
72649;SDS011;61467;50.674;4.618;2023-04-06T03:31:27;17.80;;;7.97;;
72649;SDS011;61467;50.674;4.618;2023-04-06T03:33:53;17.38;;;8.13;;
72649;SDS011;61467;50.674;4.618;2023-04-06T03:36:20;16.38;;;7.95;;
72649;SDS011;61467;50.674;4.618;2023-04-06T03:38:47;17.58;;;7.72;;
72649;SDS011;61467;50.674;4.618;2023-04-06T03:41:15;16.83;;;7.97;;
72649;SDS011;61467;50.674;4.618;2023-04-06T03:43:42;17.15;;;8.27;;
72649;SDS011;61467;50.674;4.618;2023-04-06T03:46:09;19.67;;;8.10;;
72649;SDS011;61467;50.674;4.618;2023-04-06T03:48:35;20.05;;;7.82;;
72649;SDS011;61467;50.674;4.618;2023-04-06T03:51:02;18.20;;;9.27;;
72649;SDS011;61467;50.674;4.618;2023-04-06T03:53:29;17.63;;;8.33;;
72649;SDS011;61467;50.674;4.618;2023-04-06T03:55:56;18.00;;;8.05;;
72649;SDS011;61467;50.674;4.618;2023-04-06T03:58:24;21.02;;;8.35;;
72649;SDS011;61467;50.674;4.618;2023-04-06T04:00:51;17.45;;;8.18;;
72649;SDS011;61467;50.674;4.618;2023-04-06T04:03:18;15.65;;;7.55;;
72649;SDS011;61467;50.674;4.618;2023-04-06T04:05:44;19.03;;;7.63;;
72649;SDS011;61467;50.674;4.618;2023-04-06T04:08:11;16.20;;;7.80;;
72649;SDS011;61467;50.674;4.618;2023-04-06T04:10:38;17.17;;;7.93;;
72649;SDS011;61467;50.674;4.618;2023-04-06T04:13:06;16.33;;;7.38;;
72649;SDS011;61467;50.674;4.618;2023-04-06T04:15:34;19.42;;;7.68;;
72649;SDS011;61467;50.674;4.618;2023-04-06T04:18:01;16.80;;;6.93;;
72649;SDS011;61467;50.674;4.618;2023-04-06T04:20:28;15.68;;;6.63;;
72649;SDS011;61467;50.674;4.618;2023-04-06T04:22:54;16.83;;;7.55;;
72649;SDS011;61467;50.674;4.618;2023-04-06T04:25:22;14.05;;;6.90;;
72649;SDS011;61467;50.674;4.618;2023-04-06T04:27:49;14.65;;;7.22;;
72649;SDS011;61467;50.674;4.618;2023-04-06T04:30:16;17.63;;;7.80;;
72649;SDS011;61467;50.674;4.618;2023-04-06T04:32:44;15.13;;;7.28;;
72649;SDS011;61467;50.674;4.618;2023-04-06T04:35:11;16.35;;;7.53;;
72649;SDS011;61467;50.674;4.618;2023-04-06T04:37:38;16.42;;;7.28;;
72649;SDS011;61467;50.674;4.618;2023-04-06T04:40:06;19.10;;;7.40;;
72649;SDS011;61467;50.674;4.618;2023-04-06T04:42:33;19.63;;;7.73;;
72649;SDS011;61467;50.674;4.618;2023-04-06T04:45:00;16.70;;;7.40;;
72649;SDS011;61467;50.674;4.618;2023-04-06T04:47:27;14.88;;;8.07;;
72649;SDS011;61467;50.674;4.618;2023-04-06T04:49:55;16.75;;;6.88;;
72649;SDS011;61467;50.674;4.618;2023-04-06T04:52:22;15.63;;;7.05;;
72649;SDS011;61467;50.674;4.618;2023-04-06T04:54:48;15.73;;;7.23;;
72649;SDS011;61467;50.674;4.618;2023-04-06T04:57:15;15.65;;;7.57;;
72649;SDS011;61467;50.674;4.618;2023-04-06T04:59:42;15.20;;;7.15;;
72649;SDS011;61467;50.674;4.618;2023-04-06T05:02:09;16.85;;;7.60;;
72649;SDS011;61467;50.674;4.618;2023-04-06T05:04:36;16.42;;;7.10;;
72649;SDS011;61467;50.674;4.618;2023-04-06T05:07:05;15.53;;;7.00;;
72649;SDS011;61467;50.674;4.618;2023-04-06T05:09:35;15.15;;;7.18;;
72649;SDS011;61467;50.674;4.618;2023-04-06T05:12:02;15.68;;;7.22;;
72649;SDS011;61467;50.674;4.618;2023-04-06T05:14:29;16.73;;;7.32;;
72649;SDS011;61467;50.674;4.618;2023-04-06T05:16:56;17.08;;;7.03;;
72649;SDS011;61467;50.674;4.618;2023-04-06T05:19:22;17.37;;;8.13;;
72649;SDS011;61467;50.674;4.618;2023-04-06T05:21:49;19.00;;;8.05;;
72649;SDS011;61467;50.674;4.618;2023-04-06T05:24:17;16.67;;;7.05;;
72649;SDS011;61467;50.674;4.618;2023-04-06T05:26:44;17.83;;;7.70;;
72649;SDS011;61467;50.674;4.618;2023-04-06T05:29:11;16.80;;;7.82;;
72649;SDS011;61467;50.674;4.618;2023-04-06T05:31:38;18.27;;;7.53;;
72649;SDS011;61467;50.674;4.618;2023-04-06T05:34:05;20.38;;;8.18;;
72649;SDS011;61467;50.674;4.618;2023-04-06T05:36:34;18.33;;;8.15;;
72649;SDS011;61467;50.674;4.618;2023-04-06T05:39:01;18.33;;;8.07;;
72649;SDS011;61467;50.674;4.618;2023-04-06T05:41:29;19.80;;;8.07;;
72649;SDS011;61467;50.674;4.618;2023-04-06T05:43:56;17.93;;;7.60;;
72649;SDS011;61467;50.674;4.618;2023-04-06T05:46:23;17.63;;;7.65;;
72649;SDS011;61467;50.674;4.618;2023-04-06T05:48:49;16.45;;;7.47;;
72649;SDS011;61467;50.674;4.618;2023-04-06T05:51:16;19.90;;;7.78;;
72649;SDS011;61467;50.674;4.618;2023-04-06T05:53:43;20.38;;;8.85;;
72649;SDS011;61467;50.674;4.618;2023-04-06T05:56:10;15.43;;;7.40;;
72649;SDS011;61467;50.674;4.618;2023-04-06T05:58:38;16.08;;;7.20;;
72649;SDS011;61467;50.674;4.618;2023-04-06T06:01:05;17.30;;;6.72;;
72649;SDS011;61467;50.674;4.618;2023-04-06T06:03:32;18.63;;;7.78;;
72649;SDS011;61467;50.674;4.618;2023-04-06T06:06:02;17.75;;;8.00;;
72649;SDS011;61467;50.674;4.618;2023-04-06T06:08:29;17.03;;;7.53;;
72649;SDS011;61467;50.674;4.618;2023-04-06T06:10:56;15.65;;;7.75;;
72649;SDS011;61467;50.674;4.618;2023-04-06T06:13:23;17.70;;;7.85;;
72649;SDS011;61467;50.674;4.618;2023-04-06T06:15:52;18.95;;;8.00;;
72649;SDS011;61467;50.674;4.618;2023-04-06T06:18:18;18.80;;;7.60;;
72649;SDS011;61467;50.674;4.618;2023-04-06T06:20:45;17.43;;;7.60;;
72649;SDS011;61467;50.674;4.618;2023-04-06T06:23:12;18.17;;;7.90;;
72649;SDS011;61467;50.674;4.618;2023-04-06T06:25:39;16.00;;;7.45;;
72649;SDS011;61467;50.674;4.618;2023-04-06T06:28:06;17.80;;;7.82;;
72649;SDS011;61467;50.674;4.618;2023-04-06T06:30:32;19.35;;;8.13;;
72649;SDS011;61467;50.674;4.618;2023-04-06T06:33:01;14.90;;;7.33;;
72649;SDS011;61467;50.674;4.618;2023-04-06T06:35:28;19.05;;;8.18;;
72649;SDS011;61467;50.674;4.618;2023-04-06T06:37:55;18.27;;;7.70;;
72649;SDS011;61467;50.674;4.618;2023-04-06T06:40:22;18.10;;;7.80;;
72649;SDS011;61467;50.674;4.618;2023-04-06T06:42:49;15.82;;;7.45;;
72649;SDS011;61467;50.674;4.618;2023-04-06T06:45:16;19.47;;;8.23;;
72649;SDS011;61467;50.674;4.618;2023-04-06T06:47:45;17.15;;;7.57;;
72649;SDS011;61467;50.674;4.618;2023-04-06T06:50:14;21.90;;;8.23;;
72649;SDS011;61467;50.674;4.618;2023-04-06T06:52:41;18.70;;;8.02;;
72649;SDS011;61467;50.674;4.618;2023-04-06T06:55:08;16.75;;;7.63;;
72649;SDS011;61467;50.674;4.618;2023-04-06T06:57:36;22.67;;;8.30;;
72649;SDS011;61467;50.674;4.618;2023-04-06T07:00:04;17.63;;;8.30;;
72649;SDS011;61467;50.674;4.618;2023-04-06T07:02:33;19.65;;;8.68;;
72649;SDS011;61467;50.674;4.618;2023-04-06T07:05:01;18.85;;;8.38;;
72649;SDS011;61467;50.674;4.618;2023-04-06T07:07:30;16.60;;;8.50;;
72649;SDS011;61467;50.674;4.618;2023-04-06T07:09:57;18.07;;;8.47;;
72649;SDS011;61467;50.674;4.618;2023-04-06T07:12:24;15.43;;;8.13;;
72649;SDS011;61467;50.674;4.618;2023-04-06T07:14:51;20.83;;;8.50;;
72649;SDS011;61467;50.674;4.618;2023-04-06T07:17:18;16.52;;;9.25;;
72649;SDS011;61467;50.674;4.618;2023-04-06T07:19:45;19.85;;;8.57;;
72649;SDS011;61467;50.674;4.618;2023-04-06T07:22:12;21.33;;;8.73;;
72649;SDS011;61467;50.674;4.618;2023-04-06T07:24:40;20.38;;;8.63;;
72649;SDS011;61467;50.674;4.618;2023-04-06T07:27:07;19.88;;;8.70;;
72649;SDS011;61467;50.674;4.618;2023-04-06T07:29:33;18.45;;;9.05;;
72649;SDS011;61467;50.674;4.618;2023-04-06T07:32:00;16.95;;;9.55;;
72649;SDS011;61467;50.674;4.618;2023-04-06T07:34:27;18.47;;;9.00;;
72649;SDS011;61467;50.674;4.618;2023-04-06T07:36:54;19.83;;;8.57;;
72649;SDS011;61467;50.674;4.618;2023-04-06T07:39:21;19.50;;;8.57;;
72649;SDS011;61467;50.674;4.618;2023-04-06T07:41:52;22.25;;;8.80;;
72649;SDS011;61467;50.674;4.618;2023-04-06T07:44:19;20.20;;;8.90;;
72649;SDS011;61467;50.674;4.618;2023-04-06T07:46:46;17.97;;;8.90;;
72649;SDS011;61467;50.674;4.618;2023-04-06T07:49:13;19.50;;;9.27;;
72649;SDS011;61467;50.674;4.618;2023-04-06T07:51:39;21.02;;;9.45;;
72649;SDS011;61467;50.674;4.618;2023-04-06T07:54:08;20.20;;;8.75;;
72649;SDS011;61467;50.674;4.618;2023-04-06T07:56:35;17.92;;;8.10;;
72649;SDS011;61467;50.674;4.618;2023-04-06T07:59:03;16.63;;;7.90;;
72649;SDS011;61467;50.674;4.618;2023-04-06T08:01:30;16.35;;;7.65;;
72649;SDS011;61467;50.674;4.618;2023-04-06T08:03:56;17.50;;;8.20;;
72649;SDS011;61467;50.674;4.618;2023-04-06T08:06:24;17.75;;;8.40;;
72649;SDS011;61467;50.674;4.618;2023-04-06T08:08:51;19.23;;;8.52;;
72649;SDS011;61467;50.674;4.618;2023-04-06T08:11:18;18.13;;;7.90;;
72649;SDS011;61467;50.674;4.618;2023-04-06T08:13:45;17.58;;;8.88;;
72649;SDS011;61467;50.674;4.618;2023-04-06T08:16:13;22.02;;;9.27;;
72649;SDS011;61467;50.674;4.618;2023-04-06T08:18:40;16.15;;;8.05;;
72649;SDS011;61467;50.674;4.618;2023-04-06T08:21:06;16.73;;;8.45;;
72649;SDS011;61467;50.674;4.618;2023-04-06T08:23:33;16.87;;;8.20;;
72649;SDS011;61467;50.674;4.618;2023-04-06T08:26:00;20.75;;;8.98;;
72649;SDS011;61467;50.674;4.618;2023-04-06T08:28:27;17.85;;;8.77;;
72649;SDS011;61467;50.674;4.618;2023-04-06T08:30:54;14.65;;;7.28;;
72649;SDS011;61467;50.674;4.618;2023-04-06T08:33:22;18.33;;;8.80;;
72649;SDS011;61467;50.674;4.618;2023-04-06T08:35:49;16.67;;;8.13;;
72649;SDS011;61467;50.674;4.618;2023-04-06T08:38:16;17.15;;;8.38;;
72649;SDS011;61467;50.674;4.618;2023-04-06T08:40:43;15.43;;;8.00;;
72649;SDS011;61467;50.674;4.618;2023-04-06T08:43:13;18.83;;;9.10;;
72649;SDS011;61467;50.674;4.618;2023-04-06T08:45:41;18.67;;;7.90;;
72649;SDS011;61467;50.674;4.618;2023-04-06T08:48:08;15.67;;;7.33;;
72649;SDS011;61467;50.674;4.618;2023-04-06T08:50:37;20.17;;;8.30;;
72649;SDS011;61467;50.674;4.618;2023-04-06T08:53:05;17.92;;;8.63;;
72649;SDS011;61467;50.674;4.618;2023-04-06T08:55:32;17.15;;;8.35;;
72649;SDS011;61467;50.674;4.618;2023-04-06T08:58:00;18.50;;;8.30;;
72649;SDS011;61467;50.674;4.618;2023-04-06T09:00:27;16.93;;;7.77;;
72649;SDS011;61467;50.674;4.618;2023-04-06T09:02:55;15.32;;;7.53;;
72649;SDS011;61467;50.674;4.618;2023-04-06T09:05:23;17.23;;;8.45;;
72649;SDS011;61467;50.674;4.618;2023-04-06T09:07:53;15.55;;;7.88;;
72649;SDS011;61467;50.674;4.618;2023-04-06T09:10:20;15.75;;;7.97;;
72649;SDS011;61467;50.674;4.618;2023-04-06T09:12:50;17.10;;;7.53;;
72649;SDS011;61467;50.674;4.618;2023-04-06T09:15:18;19.25;;;7.97;;
72649;SDS011;61467;50.674;4.618;2023-04-06T09:17:45;17.13;;;8.23;;
72649;SDS011;61467;50.674;4.618;2023-04-06T09:20:12;18.23;;;8.48;;
72649;SDS011;61467;50.674;4.618;2023-04-06T09:22:42;16.00;;;8.00;;
72649;SDS011;61467;50.674;4.618;2023-04-06T09:25:17;15.90;;;7.57;;
72649;SDS011;61467;50.674;4.618;2023-04-06T09:27:45;16.80;;;8.07;;
72649;SDS011;61467;50.674;4.618;2023-04-06T09:30:12;17.75;;;9.20;;
72649;SDS011;61467;50.674;4.618;2023-04-06T09:32:45;17.27;;;8.85;;
72649;SDS011;61467;50.674;4.618;2023-04-06T09:35:13;18.27;;;8.70;;
72649;SDS011;61467;50.674;4.618;2023-04-06T09:37:40;19.97;;;8.97;;
72649;SDS011;61467;50.674;4.618;2023-04-06T09:40:07;15.98;;;8.40;;
72649;SDS011;61467;50.674;4.618;2023-04-06T09:42:36;17.48;;;8.00;;
72649;SDS011;61467;50.674;4.618;2023-04-06T09:45:03;20.13;;;8.73;;
72649;SDS011;61467;50.674;4.618;2023-04-06T09:47:31;17.48;;;8.82;;
72649;SDS011;61467;50.674;4.618;2023-04-06T09:49:59;18.80;;;9.70;;
72649;SDS011;61467;50.674;4.618;2023-04-06T09:52:26;18.02;;;8.38;;
72649;SDS011;61467;50.674;4.618;2023-04-06T09:54:58;17.60;;;8.52;;
72649;SDS011;61467;50.674;4.618;2023-04-06T09:57:31;18.73;;;8.40;;
72649;SDS011;61467;50.674;4.618;2023-04-06T10:00:02;18.77;;;8.77;;
72649;SDS011;61467;50.674;4.618;2023-04-06T10:02:35;16.53;;;7.90;;
72649;SDS011;61467;50.674;4.618;2023-04-06T10:05:13;16.67;;;8.55;;
72649;SDS011;61467;50.674;4.618;2023-04-06T10:07:44;17.08;;;7.47;;
72649;SDS011;61467;50.674;4.618;2023-04-06T10:10:12;16.42;;;8.05;;
72649;SDS011;61467;50.674;4.618;2023-04-06T10:12:42;16.27;;;8.10;;
72649;SDS011;61467;50.674;4.618;2023-04-06T10:15:10;16.03;;;8.33;;
72649;SDS011;61467;50.674;4.618;2023-04-06T10:17:37;16.85;;;8.18;;
72649;SDS011;61467;50.674;4.618;2023-04-06T10:20:06;15.02;;;7.57;;
72649;SDS011;61467;50.674;4.618;2023-04-06T10:22:36;18.83;;;7.82;;
72649;SDS011;61467;50.674;4.618;2023-04-06T10:25:09;14.32;;;7.60;;
72649;SDS011;61467;50.674;4.618;2023-04-06T10:27:36;16.53;;;7.90;;
72649;SDS011;61467;50.674;4.618;2023-04-06T10:30:05;15.77;;;6.88;;
72649;SDS011;61467;50.674;4.618;2023-04-06T10:32:36;14.48;;;7.55;;
72649;SDS011;61467;50.674;4.618;2023-04-06T10:35:07;15.85;;;7.57;;
72649;SDS011;61467;50.674;4.618;2023-04-06T10:40:31;14.17;;;6.50;;
72649;SDS011;61467;50.674;4.618;2023-04-06T10:43:06;13.70;;;7.22;;
72649;SDS011;61467;50.674;4.618;2023-04-06T10:45:36;15.23;;;7.53;;
72649;SDS011;61467;50.674;4.618;2023-04-06T10:48:12;16.25;;;7.32;;
72649;SDS011;61467;50.674;4.618;2023-04-06T10:50:40;15.10;;;7.45;;
72649;SDS011;61467;50.674;4.618;2023-04-06T10:53:07;15.23;;;7.37;;
72649;SDS011;61467;50.674;4.618;2023-04-06T10:55:34;15.23;;;7.15;;
72649;SDS011;61467;50.674;4.618;2023-04-06T10:58:06;15.60;;;7.25;;
72649;SDS011;61467;50.674;4.618;2023-04-06T11:00:33;16.73;;;7.18;;
72649;SDS011;61467;50.674;4.618;2023-04-06T11:03:01;15.40;;;7.18;;
72649;SDS011;61467;50.674;4.618;2023-04-06T11:05:28;16.30;;;6.97;;
72649;SDS011;61467;50.674;4.618;2023-04-06T11:07:56;16.05;;;6.90;;
72649;SDS011;61467;50.674;4.618;2023-04-06T11:10:23;14.35;;;7.15;;
72649;SDS011;61467;50.674;4.618;2023-04-06T11:12:53;14.60;;;6.63;;
72649;SDS011;61467;50.674;4.618;2023-04-06T11:15:20;14.05;;;6.88;;
72649;SDS011;61467;50.674;4.618;2023-04-06T11:17:47;14.27;;;6.50;;
72649;SDS011;61467;50.674;4.618;2023-04-06T11:20:19;13.32;;;6.38;;
72649;SDS011;61467;50.674;4.618;2023-04-06T11:22:49;17.23;;;7.20;;
72649;SDS011;61467;50.674;4.618;2023-04-06T11:25:17;12.93;;;6.35;;
72649;SDS011;61467;50.674;4.618;2023-04-06T11:27:44;16.13;;;6.80;;
72649;SDS011;61467;50.674;4.618;2023-04-06T11:30:12;13.87;;;6.73;;
72649;SDS011;61467;50.674;4.618;2023-04-06T11:32:40;15.98;;;7.03;;
72649;SDS011;61467;50.674;4.618;2023-04-06T11:35:10;13.93;;;6.88;;
72649;SDS011;61467;50.674;4.618;2023-04-06T11:37:39;12.98;;;6.07;;
72649;SDS011;61467;50.674;4.618;2023-04-06T11:40:07;14.68;;;7.07;;
72649;SDS011;61467;50.674;4.618;2023-04-06T11:42:35;14.73;;;6.87;;
72649;SDS011;61467;50.674;4.618;2023-04-06T11:45:09;13.93;;;7.00;;
72649;SDS011;61467;50.674;4.618;2023-04-06T11:47:41;15.30;;;7.15;;
72649;SDS011;61467;50.674;4.618;2023-04-06T11:50:08;15.40;;;6.78;;
72649;SDS011;61467;50.674;4.618;2023-04-06T11:52:38;14.05;;;6.97;;
72649;SDS011;61467;50.674;4.618;2023-04-06T11:55:10;15.00;;;6.60;;
72649;SDS011;61467;50.674;4.618;2023-04-06T11:57:42;13.43;;;6.43;;
72649;SDS011;61467;50.674;4.618;2023-04-06T12:00:10;14.60;;;7.05;;
72649;SDS011;61467;50.674;4.618;2023-04-06T12:02:38;14.70;;;7.15;;
72649;SDS011;61467;50.674;4.618;2023-04-06T12:05:06;14.82;;;7.10;;
72649;SDS011;61467;50.674;4.618;2023-04-06T12:07:33;13.97;;;6.73;;
72649;SDS011;61467;50.674;4.618;2023-04-06T12:10:03;13.90;;;7.65;;
72649;SDS011;61467;50.674;4.618;2023-04-06T12:12:31;15.27;;;7.35;;
72649;SDS011;61467;50.674;4.618;2023-04-06T12:14:58;14.55;;;7.00;;
72649;SDS011;61467;50.674;4.618;2023-04-06T12:17:25;14.68;;;7.18;;
72649;SDS011;61467;50.674;4.618;2023-04-06T12:19:51;15.30;;;7.20;;
72649;SDS011;61467;50.674;4.618;2023-04-06T12:22:18;14.52;;;7.00;;
72649;SDS011;61467;50.674;4.618;2023-04-06T12:24:45;16.38;;;7.25;;
72649;SDS011;61467;50.674;4.618;2023-04-06T12:27:14;14.68;;;7.15;;
72649;SDS011;61467;50.674;4.618;2023-04-06T12:29:41;17.10;;;7.60;;
72649;SDS011;61467;50.674;4.618;2023-04-06T12:32:08;15.53;;;6.83;;
72649;SDS011;61467;50.674;4.618;2023-04-06T12:34:35;15.95;;;7.78;;
72649;SDS011;61467;50.674;4.618;2023-04-06T12:37:02;17.70;;;8.40;;
72649;SDS011;61467;50.674;4.618;2023-04-06T12:39:29;15.73;;;7.72;;
72649;SDS011;61467;50.674;4.618;2023-04-06T12:41:56;18.20;;;8.60;;
72649;SDS011;61467;50.674;4.618;2023-04-06T12:44:24;16.43;;;8.13;;
72649;SDS011;61467;50.674;4.618;2023-04-06T12:46:51;15.38;;;7.95;;
72649;SDS011;61467;50.674;4.618;2023-04-06T12:49:18;15.77;;;8.68;;
72649;SDS011;61467;50.674;4.618;2023-04-06T12:51:44;17.00;;;8.75;;
72649;SDS011;61467;50.674;4.618;2023-04-06T12:54:11;15.80;;;8.05;;
72649;SDS011;61467;50.674;4.618;2023-04-06T12:56:38;17.33;;;8.43;;
72649;SDS011;61467;50.674;4.618;2023-04-06T12:59:05;17.10;;;8.30;;
72649;SDS011;61467;50.674;4.618;2023-04-06T13:01:33;17.05;;;8.10;;
72649;SDS011;61467;50.674;4.618;2023-04-06T13:04:00;16.98;;;9.00;;
72649;SDS011;61467;50.674;4.618;2023-04-06T13:06:27;16.75;;;9.13;;
72649;SDS011;61467;50.674;4.618;2023-04-06T13:08:54;18.33;;;10.00;;
72649;SDS011;61467;50.674;4.618;2023-04-06T13:11:21;16.90;;;8.98;;
72649;SDS011;61467;50.674;4.618;2023-04-06T13:13:49;19.13;;;9.45;;
72649;SDS011;61467;50.674;4.618;2023-04-06T13:16:16;17.75;;;9.02;;
72649;SDS011;61467;50.674;4.618;2023-04-06T13:18:46;15.88;;;8.55;;
72649;SDS011;61467;50.674;4.618;2023-04-06T13:21:13;21.30;;;9.60;;
72649;SDS011;61467;50.674;4.618;2023-04-06T13:23:41;18.58;;;8.82;;
72649;SDS011;61467;50.674;4.618;2023-04-06T13:26:08;15.48;;;8.90;;
72649;SDS011;61467;50.674;4.618;2023-04-06T13:28:35;18.85;;;9.50;;
72649;SDS011;61467;50.674;4.618;2023-04-06T13:31:04;17.58;;;9.20;;
72649;SDS011;61467;50.674;4.618;2023-04-06T13:33:32;17.83;;;8.80;;
72649;SDS011;61467;50.674;4.618;2023-04-06T13:36:00;17.83;;;8.57;;
72649;SDS011;61467;50.674;4.618;2023-04-06T13:38:27;16.42;;;8.77;;
72649;SDS011;61467;50.674;4.618;2023-04-06T13:40:56;17.35;;;9.18;;
72649;SDS011;61467;50.674;4.618;2023-04-06T13:43:22;19.10;;;8.88;;
72649;SDS011;61467;50.674;4.618;2023-04-06T13:45:51;17.03;;;8.77;;
72649;SDS011;61467;50.674;4.618;2023-04-06T13:48:20;17.35;;;8.90;;
72649;SDS011;61467;50.674;4.618;2023-04-06T13:50:48;17.13;;;9.15;;
72649;SDS011;61467;50.674;4.618;2023-04-06T13:53:16;17.83;;;8.70;;
72649;SDS011;61467;50.674;4.618;2023-04-06T13:55:43;16.45;;;8.85;;
72649;SDS011;61467;50.674;4.618;2023-04-06T13:58:10;17.90;;;8.43;;
72649;SDS011;61467;50.674;4.618;2023-04-06T14:00:36;16.90;;;8.77;;
72649;SDS011;61467;50.674;4.618;2023-04-06T14:03:03;21.67;;;9.65;;
72649;SDS011;61467;50.674;4.618;2023-04-06T14:05:30;18.00;;;8.73;;
72649;SDS011;61467;50.674;4.618;2023-04-06T14:07:57;16.60;;;8.15;;
72649;SDS011;61467;50.674;4.618;2023-04-06T14:10:26;17.97;;;9.10;;
72649;SDS011;61467;50.674;4.618;2023-04-06T14:12:53;20.27;;;9.00;;
72649;SDS011;61467;50.674;4.618;2023-04-06T14:15:19;17.58;;;9.43;;
72649;SDS011;61467;50.674;4.618;2023-04-06T14:17:47;16.58;;;8.93;;
72649;SDS011;61467;50.674;4.618;2023-04-06T14:20:14;18.83;;;9.23;;
72649;SDS011;61467;50.674;4.618;2023-04-06T14:22:41;18.73;;;9.70;;
72649;SDS011;61467;50.674;4.618;2023-04-06T14:25:09;19.42;;;9.38;;
72649;SDS011;61467;50.674;4.618;2023-04-06T14:27:37;17.83;;;9.63;;
72649;SDS011;61467;50.674;4.618;2023-04-06T14:30:05;18.60;;;9.38;;
72649;SDS011;61467;50.674;4.618;2023-04-06T14:32:33;19.80;;;9.95;;
72649;SDS011;61467;50.674;4.618;2023-04-06T14:35:00;18.27;;;10.03;;
72649;SDS011;61467;50.674;4.618;2023-04-06T14:37:27;19.85;;;8.82;;